This is the latest recevied weather packets stored in our database for station/object SP1GDK-10. If no packets are shown the sender has not sent any weather packets the latest 10 day(s).
| Time | Temp. | Humidity | Pressure | Rain* | Wind** | Luminosity | Snow |
|---|---|---|---|---|---|---|---|
| 1777623556 | 15° C | 63% | 1029.9 hPa | - | - | - | - |
| 1777621754 | 14.44° C | 75% | 1029.9 hPa | - | - | - | - |
| 1777620553 | 13.89° C | 80% | 1030 hPa | - | - | - | - |
| 1777619355 | 13.33° C | 84% | 1030.1 hPa | - | - | - | - |
| 1777616364 | 11.67° C | 94% | 1030 hPa | - | - | - | - |
| 1777602555 | 7.78° C | 10% | - | - | - | - | - |
| 1777600157 | 8.33° C | 10% | - | - | - | - | - |
| 1777597757 | 8.33° C | 10% | - | - | - | - | - |
| 1777592955 | 8.89° C | 95% | 1030 hPa | - | - | - | - |
| 1777586356 | 9.44° C | 66% | 1030.3 hPa | - | - | - | - |
| 1777583954 | 10.56° C | 56% | 1030.3 hPa | - | - | - | - |
| 1777581553 | 11.11° C | 51% | 1030.3 hPa | - | - | - | - |
| 1777574359 | 13.89° C | 42% | 1030.1 hPa | - | - | - | - |
| 1777571953 | 15° C | 39% | 1029.9 hPa | - | - | - | - |
| 1777570158 | 16.11° C | 35% | 1029.7 hPa | - | - | - | - |
| 1777565355 | 17.22° C | 37% | 1030 hPa | - | - | - | - |
| 1777558754 | 17.22° C | 39% | 1030.5 hPa | - | - | - | - |
| 1777556355 | 17.22° C | 38% | 1030.7 hPa | - | - | - | - |
| 1777553953 | 16.67° C | 39% | 1031.1 hPa | - | - | - | - |
| 1777541353 | 15° C | 43% | 1032.4 hPa | - | - | - | - |
| 1777534153 | 12.22° C | 49% | 1033 hPa | - | - | - | - |
| 1777529954 | 10° C | 57% | 1033.1 hPa | - | - | - | - |
| 1777526355 | 7.22° C | 70% | 1033.3 hPa | - | - | - | - |
| 1777513153 | 5.56° C | 67% | 1033.1 hPa | - | - | - | - |
| 1777509555 | 5.56° C | 69% | 1033.1 hPa | - | - | - | - |
* Rain since midnight (hover to see other rain measurements)
** Current wind speed in m/s (hover to see current wind gust speed)